| time (UTC) | temp F | wind direction | speed MPH | gust MPH | rain 1hr in | rain 24hr in | rain mn in | humidity % | barometer mb |
| 20260906093108 | 56 | 66 | 0.0 | 0.0 | 0.05 | 0.87 | 0.25 | 66 | 1011.4 |
| 20260906092843 | 57 | 66 | 0.0 | 0.0 | 0.05 | 0.87 | 0.25 | 66 | 1011.6 |
| 20260906092404 | 57 | 66 | 0.0 | 0.0 | 0.04 | 0.86 | 0.24 | 66 | 1011.5 |
| 20260906091841 | 57 | 66 | 0.0 | 0.0 | 0.04 | 0.85 | 0.23 | 66 | 1011.5 |
| 20260906091543 | 57 | 66 | 0.0 | 0.0 | 0.04 | 0.85 | 0.23 | 66 | 1011.2 |
| 20260906091341 | 57 | 66 | 0.0 | 0.0 | 0.03 | 0.84 | 0.22 | 66 | 1011.4 |
| 20260906090858 | 57 | 66 | 0.0 | 0.0 | 0.04 | 0.84 | 0.22 | 66 | 1011.5 |
| 20260906090357 | 57 | 66 | 0.0 | 0.0 | 0.06 | 0.84 | 0.22 | 66 | 1011.4 |
| 20260906090052 | 57 | 66 | 0.0 | 0.0 | 0.07 | 0.84 | 0.22 | 66 | 1011.2 |
| 20260906085851 | 57 | 66 | 0.0 | 0.0 | 0.07 | 0.84 | 0.22 | 66 | 1011.4 |
| 20260906085350 | 57 | 66 | 0.0 | 0.0 | 0.08 | 0.84 | 0.22 | 66 | 1011.5 |
| 20260906084846 | 58 | 66 | 0.0 | 0.0 | 0.09 | 0.84 | 0.22 | 66 | 1011.5 |
| 20260906084508 | 57 | 66 | 0.0 | 0.0 | 0.10 | 0.84 | 0.22 | 66 | 1011.3 |
| 20260906084406 | 58 | 66 | 0.0 | 0.0 | 0.10 | 0.83 | 0.21 | 66 | 1011.6 |
| 20260906083841 | 58 | 66 | 0.0 | 0.0 | 0.12 | 0.82 | 0.20 | 66 | 1011.5 |
| 20260906083342 | 58 | 67 | 0.0 | 0.0 | 0.13 | 0.82 | 0.20 | 66 | 1011.4 |
| 20260906083046 | 57 | 66 | 0.0 | 0.0 | 0.13 | 0.82 | 0.20 | 66 | 1011.1 |
| 20260906082839 | 58 | 66 | 0.0 | 0.0 | 0.13 | 0.82 | 0.20 | 66 | 1011.4 |
| 20260906082359 | 58 | 67 | 0.0 | 0.0 | 0.14 | 0.82 | 0.20 | 66 | 1011.4 |
| 20260906081911 | 58 | 67 | 0.0 | 0.0 | 0.14 | 0.81 | 0.19 | 66 | 1011.4 |
| 20260906081549 | 57 | 67 | 0.0 | 0.0 | 0.14 | 0.81 | 0.19 | 66 | 1011.0 |
| 20260906081347 | 58 | 67 | 0.0 | 1.0 | 0.14 | 0.81 | 0.19 | 66 | 1011.3 |
| 20260906080844 | 58 | 67 | 0.0 | 1.0 | 0.14 | 0.80 | 0.18 | 66 | 1011.4 |
| 20260906080405 | 58 | 66 | 0.0 | 0.0 | 0.12 | 0.78 | 0.16 | 66 | 1011.2 |
| 20260906080043 | 57 | 40 | 0.0 | 0.0 | 0.11 | 0.77 | 0.15 | 66 | 1010.9 |
| 20260906075840 | 58 | 39 | 0.0 | 0.0 | 0.11 | 0.77 | 0.15 | 66 | 1011.2 |
| 20260906075341 | 58 | 38 | 0.0 | 2.0 | 0.10 | 0.76 | 0.14 | 66 | 1011.2 |
| 20260906074839 | 58 | 39 | 0.0 | 2.0 | 0.09 | 0.75 | 0.13 | 66 | 1011.2 |
| 20260906074542 | 58 | 317 | 0.0 | 1.0 | 0.08 | 0.74 | 0.12 | 66 | 1010.9 |
| 20260906074340 | 58 | 317 | 0.0 | 1.0 | 0.07 | 0.73 | 0.11 | 66 | 1011.3 |
| 20260906073834 | 58 | 49 | 0.0 | 2.0 | 0.04 | 0.70 | 0.08 | 66 | 1011.1 |
| 20260906073354 | 58 | 49 | 0.0 | 2.0 | 0.03 | 0.69 | 0.07 | 66 | 1011.1 |
| 20260906073015 | 58 | 189 | 0.0 | 1.0 | 0.03 | 0.69 | 0.07 | 66 | 1010.8 |
| 20260906072906 | 58 | 277 | 0.0 | 1.0 | 0.03 | 0.69 | 0.07 | 66 | 1011.0 |
| 20260906072345 | 58 | 280 | 0.0 | 1.0 | 0.02 | 0.68 | 0.06 | 66 | 1010.9 |
| 20260906071842 | 58 | 279 | 0.0 | 0.0 | 0.01 | 0.67 | 0.05 | 66 | 1010.9 |
| 20260906071544 | 58 | 279 | 0.0 | 0.0 | 0.01 | 0.67 | 0.05 | 66 | 1010.5 |
| 20260906071343 | 58 | 279 | 0.0 | 0.0 | 0.01 | 0.67 | 0.05 | 66 | 1010.7 |
| 20260906070841 | 58 | 279 | 0.0 | 0.0 | 0.00 | 0.66 | 0.04 | 66 | 1010.8 |
| 20260906070400 | 58 | 279 | 0.0 | 0.0 | 0.00 | 0.66 | 0.04 | 66 | 1010.7 |
| 20260906070036 | 58 | 279 | 0.0 | 0.0 | 0.00 | 0.66 | 0.04 | 66 | 1010.4 |
| 20260906065834 | 58 | 279 | 0.0 | 0.0 | 0.00 | 0.66 | 0.04 | 66 | 1010.7 |
| 20260906065354 | 58 | 279 | 0.0 | 0.0 | 0.00 | 0.66 | 0.04 | 66 | 1010.6 |
| 20260906064850 | 59 | 279 | 0.0 | 0.0 | 0.01 | 0.66 | 0.04 | 66 | 1010.6 |
| 20260906064546 | 58 | 279 | 0.0 | 0.0 | 0.01 | 0.66 | 0.04 | 66 | 1010.3 |
| 20260906064345 | 59 | 279 | 0.0 | 0.0 | 0.01 | 0.66 | 0.04 | 66 | 1010.6 |
| 20260906063842 | 59 | 279 | 0.0 | 1.0 | 0.01 | 0.66 | 0.04 | 66 | 1010.7 |
| 20260906063341 | 59 | 279 | 0.0 | 1.0 | 0.01 | 0.66 | 0.04 | 66 | 1010.7 |
| 20260906063041 | 58 | 279 | 0.0 | 0.0 | 0.01 | 0.66 | 0.04 | 66 | 1010.4 |
| 20260906062839 | 59 | 279 | 0.0 | 0.0 | 0.01 | 0.66 | 0.04 | 66 | 1010.7 |
| 20260906062338 | 59 | 279 | 0.0 | 0.0 | 0.01 | 0.66 | 0.04 | 66 | 1010.6 |
| 20260906061835 | 59 | 279 | 0.0 | 1.0 | 0.01 | 0.66 | 0.04 | 66 | 1010.6 |
| 20260906061539 | 58 | 279 | 0.0 | 1.0 | 0.01 | 0.66 | 0.04 | 66 | 1010.3 |
| 20260906061338 | 59 | 279 | 0.0 | 1.0 | 0.01 | 0.66 | 0.04 | 66 | 1010.6 |
| 20260906060854 | 59 | 279 | 0.0 | 0.0 | 0.01 | 0.66 | 0.04 | 66 | 1010.7 |
| 20260906060414 | 59 | 279 | 0.0 | 0.0 | 0.01 | 0.66 | 0.04 | 66 | 1010.7 |
| 20260906060011 | 59 | 279 | 0.0 | 0.0 | 0.01 | 0.66 | 0.04 | 66 | 1010.3 |
| 20260906055910 | 59 | 279 | 0.0 | 0.0 | 0.01 | 0.66 | 0.04 | 66 | 1010.6 |
| 20260906055336 | 59 | 279 | 0.0 | 0.0 | 0.02 | 0.66 | 0.04 | 66 | 1010.7 |
| 20260906054851 | 59 | 279 | 0.0 | 0.0 | 0.01 | 0.65 | 0.03 | 66 | 1010.6 |
| 20260906054551 | 59 | 279 | 0.0 | 1.0 | 0.01 | 0.65 | 0.03 | 66 | 1010.3 |
| 20260906054343 | 59 | 279 | 0.0 | 1.0 | 0.01 | 0.65 | 0.03 | 66 | 1010.6 |
| 20260906053836 | 59 | 279 | 0.0 | 1.0 | 0.01 | 0.65 | 0.03 | 66 | 1010.7 |
| 20260906053334 | 59 | 319 | 0.0 | 1.0 | 0.01 | 0.65 | 0.03 | 66 | 1010.6 |
| 20260906053014 | 59 | 2 | 0.0 | 1.0 | 0.01 | 0.65 | 0.03 | 66 | 1010.2 |
| 20260906052912 | 59 | 2 | 0.0 | 1.0 | 0.01 | 0.65 | 0.03 | 66 | 1010.6 |
| 20260906052405 | 59 | 314 | 0.0 | 2.0 | 0.01 | 0.65 | 0.03 | 66 | 1010.7 |
| 20260906051836 | 59 | 311 | 0.0 | 2.0 | 0.02 | 0.65 | 0.03 | 66 | 1010.7 |
| 20260906051513 | 59 | 250 | 0.0 | 1.0 | 0.02 | 0.65 | 0.03 | 66 | 1010.4 |
| 20260906051411 | 59 | 248 | 0.0 | 1.0 | 0.02 | 0.65 | 0.03 | 66 | 1010.7 |
| 20260906050846 | 59 | 248 | 0.0 | 1.0 | 0.02 | 0.65 | 0.03 | 66 | 1010.8 |
| 20260906050339 | 59 | 247 | 0.0 | 1.0 | 0.03 | 0.65 | 0.03 | 66 | 1010.8 |
| 20260906050104 | 59 | 247 | 0.0 | 1.0 | 0.03 | 0.65 | 0.03 | 66 | 1010.5 |
| 20260906045851 | 59 | 247 | 0.0 | 1.0 | 0.03 | 0.65 | 0.03 | 66 | 1010.8 |
| 20260906045344 | 59 | 247 | 0.0 | 1.0 | 0.02 | 0.64 | 0.02 | 66 | 1010.8 |
| 20260906044841 | 60 | 246 | 0.0 | 1.0 | 0.03 | 0.64 | 0.02 | 66 | 1010.8 |
| 20260906044521 | 59 | 318 | 0.0 | 1.0 | 0.04 | 0.64 | 0.02 | 66 | 1010.5 |
| 20260906044414 | 60 | 325 | 0.0 | 1.0 | 0.06 | 0.64 | 0.02 | 66 | 1010.8 |
| 20260906043838 | 60 | 298 | 0.0 | 1.0 | 0.08 | 0.64 | 0.02 | 66 | 1010.8 |
| 20260906043333 | 60 | 244 | 0.0 | 1.0 | 0.08 | 0.64 | 0.02 | 66 | 1010.8 |
| 20260906043049 | 59 | 243 | 0.0 | 1.0 | 0.09 | 0.64 | 0.02 | 66 | 1010.3 |
| 20260906042836 | 60 | 257 | 0.0 | 1.0 | 0.10 | 0.64 | 0.02 | 66 | 1010.7 |
| 20260906042350 | 60 | 257 | 0.0 | 0.0 | 0.12 | 0.64 | 0.02 | 66 | 1010.7 |
| 20260906041847 | 60 | 257 | 0.0 | 1.0 | 0.13 | 0.63 | 0.01 | 66 | 1010.8 |
| 20260906041546 | 59 | 257 | 0.0 | 1.0 | 0.14 | 0.63 | 0.01 | 66 | 1010.5 |
| 20260906041340 | 60 | 257 | 0.0 | 1.0 | 0.14 | 0.63 | 0.01 | 66 | 1010.8 |
| 20260906040852 | 60 | 266 | 0.0 | 1.0 | 0.16 | 0.63 | 0.01 | 66 | 1010.9 |
| 20260906040347 | 60 | 265 | 0.0 | 0.0 | 0.15 | 0.62 | 0.00 | 66 | 1010.8 |
| 20260906040056 | 59 | 265 | 0.0 | 1.0 | 0.16 | 0.62 | 0.62 | 66 | 1010.4 |
| 20260906035845 | 60 | 265 | 0.0 | 1.0 | 0.16 | 0.62 | 0.62 | 66 | 1010.8 |
| 20260906035345 | 60 | 265 | 0.0 | 1.0 | 0.16 | 0.62 | 0.62 | 66 | 1010.8 |
| 20260906034846 | 60 | 265 | 0.0 | 1.0 | 0.17 | 0.61 | 0.61 | 66 | 1010.8 |
| 20260906034521 | 60 | 265 | 0.0 | 2.0 | 0.15 | 0.59 | 0.59 | 66 | 1010.4 |
| 20260906034345 | 60 | 300 | 0.0 | 2.0 | 0.14 | 0.57 | 0.57 | 66 | 1010.9 |
| 20260906033856 | 60 | 302 | 0.0 | 2.0 | 0.14 | 0.56 | 0.56 | 66 | 1010.8 |
| 20260906033004 | 60 | 270 | 0.0 | 2.0 | 0.17 | 0.55 | 0.55 | 66 | 1010.4 |
| 20260906032851 | 60 | 266 | 0.0 | 2.0 | 0.18 | 0.54 | 0.54 | 66 | 1010.7 |
| 20260906032342 | 60 | 271 | 0.0 | 1.0 | 0.25 | 0.52 | 0.52 | 66 | 1010.5 |
| 20260906031849 | 61 | 247 | 0.0 | 1.0 | 0.28 | 0.50 | 0.50 | 66 | 1010.6 |
| 20260906031549 | 60 | 247 | 0.0 | 1.0 | 0.27 | 0.49 | 0.49 | 65 | 1010.3 |
| 20260906031340 | 60 | 247 | 0.0 | 1.0 | 0.27 | 0.49 | 0.49 | 66 | 1010.6 |
| 20260906030839 | 61 | 247 | 0.0 | 1.0 | 0.26 | 0.47 | 0.47 | 66 | 1010.6 |
| 20260906030351 | 61 | 247 | 0.0 | 1.0 | 0.26 | 0.47 | 0.47 | 65 | 1010.6 |
| 20260906030011 | 60 | 247 | 0.0 | 1.0 | 0.25 | 0.46 | 0.46 | 65 | 1010.2 |
| 20260906025853 | 60 | 247 | 0.0 | 1.0 | 0.25 | 0.46 | 0.46 | 65 | 1010.5 |
| 20260906025342 | 61 | 247 | 0.0 | 1.0 | 0.24 | 0.45 | 0.46 | 65 | 1010.6 |
| 20260906024849 | 61 | 247 | 0.0 | 0.0 | 0.23 | 0.44 | 0.44 | 65 | 1010.7 |
| 20260906024529 | 60 | 247 | 0.0 | 2.0 | 0.22 | 0.43 | 0.43 | 65 | 1010.4 |
| 20260906024354 | 61 | 247 | 0.0 | 2.0 | 0.22 | 0.43 | 0.43 | 65 | 1010.7 |
| 20260906023854 | 61 | 246 | 1.0 | 3.0 | 0.21 | 0.42 | 0.42 | 65 | 1010.6 |
| 20260906023339 | 61 | 252 | 1.0 | 3.0 | 0.20 | 0.41 | 0.41 | 65 | 1010.6 |
| 20260906023055 | 60 | 148 | 0.0 | 0.0 | 0.17 | 0.38 | 0.38 | 65 | 1010.3 |
| 20260906022838 | 61 | 148 | 0.0 | 0.0 | 0.15 | 0.36 | 0.36 | 65 | 1010.6 |
| 20260906022335 | 61 | 141 | 0.0 | 0.0 | 0.05 | 0.26 | 0.27 | 65 | 1010.6 |
| 20260906021847 | 61 | 244 | 0.0 | 0.0 | 0.01 | 0.22 | 0.22 | 65 | 1010.4 |
| 20260906021549 | 60 | 238 | 0.0 | 0.0 | 0.01 | 0.22 | 0.22 | 65 | 1010.0 |
| 20260906021348 | 61 | 238 | 0.0 | 0.0 | 0.02 | 0.22 | 0.22 | 65 | 1010.4 |
| 20260906020344 | 61 | 238 | 0.0 | 0.0 | 0.02 | 0.21 | 0.21 | 65 | 1010.5 |
| 20260906020040 | 60 | 238 | 0.0 | 0.0 | 0.03 | 0.21 | 0.21 | 65 | 1010.0 |
| 20260906015839 | 61 | 238 | 0.0 | 0.0 | 0.03 | 0.21 | 0.21 | 65 | 1010.4 |
| 20260906015339 | 61 | 238 | 0.0 | 0.0 | 0.04 | 0.21 | 0.21 | 65 | 1010.5 |
| 20260906014834 | 61 | 238 | 0.0 | 0.0 | 0.05 | 0.21 | 0.21 | 65 | 1010.6 |
| 20260906014633 | 61 | 238 | 0.0 | 0.0 | 0.06 | 0.21 | 0.21 | 65 | 1010.1 |
| 20260906014354 | 61 | 238 | 0.0 | 0.0 | 0.06 | 0.21 | 0.21 | 65 | 1010.6 |
| 20260906013336 | 61 | 238 | 0.0 | 0.0 | 0.08 | 0.21 | 0.21 | 65 | 1010.6 |
| 20260906013059 | 61 | 238 | 0.0 | 0.0 | 0.10 | 0.21 | 0.21 | 65 | 1010.2 |
| 20260906012852 | 61 | 238 | 0.0 | 0.0 | 0.12 | 0.21 | 0.21 | 65 | 1010.7 |
| 20260906012351 | 61 | 238 | 0.0 | 0.0 | 0.14 | 0.21 | 0.21 | 65 | 1010.6 |
| 20260906011846 | 61 | 238 | 0.0 | 0.0 | 0.15 | 0.21 | 0.21 | 65 | 1010.6 |
| 20260906011547 | 61 | 238 | 0.0 | 0.0 | 0.15 | 0.21 | 0.21 | 64 | 1010.1 |
| 20260906011346 | 61 | 238 | 0.0 | 0.0 | 0.14 | 0.20 | 0.20 | 64 | 1010.5 |
| 20260906010842 | 61 | 238 | 0.0 | 0.0 | 0.14 | 0.20 | 0.20 | 64 | 1010.5 |
| 20260906010341 | 61 | 238 | 0.0 | 0.0 | 0.13 | 0.19 | 0.19 | 64 | 1010.5 |
| 20260906010022 | 61 | 238 | 0.0 | 0.0 | 0.12 | 0.18 | 0.18 | 64 | 1010.2 |
| 20260906005856 | 61 | 238 | 0.0 | 0.0 | 0.12 | 0.18 | 0.18 | 64 | 1010.6 |
| 20260906005351 | 62 | 238 | 0.0 | 0.0 | 0.11 | 0.17 | 0.17 | 64 | 1010.5 |
| 20260906004849 | 62 | 238 | 0.0 | 0.0 | 0.10 | 0.15 | 0.16 | 64 | 1010.5 |
| 20260906004547 | 61 | 238 | 0.0 | 0.0 | 0.10 | 0.15 | 0.15 | 64 | 1010.1 |
| 20260906004344 | 62 | 238 | 0.0 | 0.0 | 0.10 | 0.15 | 0.15 | 64 | 1010.5 |
| 20260906003841 | 62 | 238 | 0.0 | 0.0 | 0.10 | 0.14 | 0.14 | 64 | 1010.4 |
| 20260906003342 | 62 | 238 | 0.0 | 0.0 | 0.12 | 0.13 | 0.13 | 64 | 1010.3 |
| 20260906003043 | 61 | 238 | 0.0 | 0.0 | 0.10 | 0.10 | 0.10 | 64 | 1010.0 |
| 20260906002842 | 62 | 238 | 0.0 | 0.0 | 0.09 | 0.09 | 0.09 | 63 | 1010.3 |
| 20260906002342 | 62 | 238 | 0.0 | 0.0 | 0.07 | 0.07 | 0.07 | 63 | 1010.3 |
| 20260906001839 | 62 | 238 | 0.0 | 0.0 | 0.06 | 0.06 | 0.06 | 62 | 1010.1 |
| 20260906001542 | 61 | 238 | 0.0 | 0.0 | 0.06 | 0.06 | 0.06 | 62 | 1009.7 |
| 20260906001340 | 62 | 238 | 0.0 | 0.0 | 0.06 | 0.06 | 0.06 | 62 | 1010.1 |
| 20260906000858 | 62 | 238 | 0.0 | 0.0 | 0.06 | 0.06 | 0.06 | 62 | 1010.1 |
| 20260906000340 | 62 | 238 | 0.0 | 0.0 | 0.06 | 0.06 | 0.06 | 61 | 1010.0 |
| 20260906000015 | 62 | 238 | 0.0 | 0.0 | 0.06 | 0.06 | 0.06 | 60 | 1009.5 |
| 20260905235914 | 62 | 238 | 0.0 | 0.0 | 0.06 | 0.06 | 0.06 | 59 | 1010.0 |
| 20260905235349 | 62 | 238 | 0.0 | 0.0 | 0.06 | 0.06 | 0.06 | 58 | 1009.9 |
| 20260905234845 | 63 | 238 | 0.0 | 0.0 | 0.05 | 0.05 | 0.05 | 57 | 1010.0 |
| 20260905234544 | 62 | 238 | 0.0 | 0.0 | 0.05 | 0.05 | 0.05 | 57 | 1009.6 |
| 20260905234343 | 63 | 238 | 0.0 | 0.0 | 0.05 | 0.05 | 0.05 | 57 | 1010.0 |
| 20260905233859 | 63 | 238 | 0.0 | 0.0 | 0.04 | 0.04 | 0.04 | 58 | 1010.0 |
| 20260905233338 | 63 | 147 | 0.0 | 0.0 | 0.00 | 0.00 | 0.00 | 60 | 1010.0 |
| 20260905233056 | 62 | 147 | 0.0 | 0.0 | 0.00 | 0.00 | 0.00 | 60 | 1009.6 |
| 20260905232854 | 63 | 147 | 0.0 | 0.0 | 0.00 | 0.00 | 0.00 | 60 | 1009.9 |
| 20260905232353 | 63 | 147 | 0.0 | 0.0 | 0.00 | 0.00 | 0.00 | 60 | 1009.8 |
| 20260905231849 | 63 | 147 | 0.0 | 0.0 | 0.00 | 0.00 | 0.00 | 61 | 1009.7 |
| 20260905231503 | 63 | 147 | 0.0 | 0.0 | 0.00 | 0.00 | 0.00 | 61 | 1009.3 |
| 20260905231402 | 63 | 147 | 0.0 | 0.0 | 0.00 | 0.00 | 0.00 | 61 | 1009.6 |
| 20260905230837 | 63 | 147 | 0.0 | 0.0 | 0.00 | 0.00 | 0.00 | 62 | 1009.6 |
| 20260905230338 | 63 | 147 | 0.0 | 0.0 | 0.00 | 0.00 | 0.00 | 62 | 1009.5 |
| 20260905230051 | 63 | 147 | 0.0 | 0.0 | 0.00 | 0.00 | 0.00 | 62 | 1009.1 |
| 20260905225850 | 63 | 147 | 0.0 | 0.0 | 0.00 | 0.00 | 0.00 | 62 | 1009.6 |
| 20260905225410 | 63 | 147 | 0.0 | 0.0 | 0.00 | 0.00 | 0.00 | 62 | 1009.5 |
| 20260905224845 | 64 | 147 | 0.0 | 0.0 | 0.00 | 0.00 | 0.00 | 62 | 1009.6 |
| 20260905224545 | 63 | 147 | 0.0 | 0.0 | 0.00 | 0.00 | 0.00 | 62 | 1009.0 |
| 20260905224344 | 64 | 147 | 0.0 | 0.0 | 0.00 | 0.00 | 0.00 | 62 | 1009.5 |
| 20260905223839 | 64 | 147 | 0.0 | 0.0 | 0.00 | 0.00 | 0.00 | 62 | 1009.3 |
| 20260905223339 | 64 | 147 | 0.0 | 0.0 | 0.00 | 0.00 | 0.00 | 62 | 1009.4 |
| 20260905223058 | 63 | 147 | 0.0 | 0.0 | 0.00 | 0.00 | 0.00 | 62 | 1008.9 |
| 20260905222857 | 64 | 147 | 0.0 | 0.0 | 0.00 | 0.00 | 0.00 | 62 | 1009.4 |
| 20260905222414 | 64 | 147 | 0.0 | 0.0 | 0.00 | 0.00 | 0.00 | 62 | 1009.4 |
| 20260905221849 | 64 | 148 | 0.0 | 0.0 | 0.00 | 0.00 | 0.00 | 63 | 1009.2 |
| 20260905221608 | 64 | 148 | 0.0 | 0.0 | 0.00 | 0.00 | 0.00 | 63 | 1008.8 |
| 20260905221348 | 64 | 128 | 0.0 | 0.0 | 0.00 | 0.00 | 0.00 | 63 | 1009.3 |
| 20260905220844 | 65 | 128 | 0.0 | 0.0 | 0.00 | 0.00 | 0.00 | 65 | 1009.3 |
| 20260905220346 | 65 | 128 | 0.0 | 0.0 | 0.00 | 0.00 | 0.00 | 66 | 1009.3 |
| 20260905220043 | 64 | 127 | 0.0 | 0.0 | 0.00 | 0.00 | 0.00 | 66 | 1008.8 |
| 20260905215842 | 65 | 127 | 0.0 | 0.0 | 0.00 | 0.00 | 0.00 | 66 | 1009.3 |
| 20260905215345 | 65 | 128 | 0.0 | 0.0 | 0.00 | 0.00 | 0.00 | 66 | 1009.2 |
| 20260905214842 | 65 | 128 | 0.0 | 0.0 | 0.00 | 0.00 | 0.00 | 65 | 1009.2 |
| 20260905214543 | 65 | 127 | 0.0 | 0.0 | 0.00 | 0.00 | 0.00 | 65 | 1008.6 |
| 20260905214342 | 65 | 127 | 0.0 | 0.0 | 0.00 | 0.00 | 0.00 | 65 | 1009.1 |
| 20260905213956 | 65 | 129 | 0.0 | 0.0 | 0.00 | 0.00 | 0.00 | 65 | 1009.1 |
| 20260905213350 | 66 | 127 | 0.0 | 1.0 | 0.00 | 0.00 | 0.00 | 65 | 1008.9 |
| 20260905213059 | 65 | 128 | 0.0 | 1.0 | 0.00 | 0.00 | 0.00 | 65 | 1008.3 |
| 20260905212847 | 66 | 128 | 0.0 | 1.0 | 0.00 | 0.00 | 0.00 | 65 | 1008.8 |
| 20260905212345 | 66 | 128 | 0.0 | 1.0 | 0.00 | 0.00 | 0.00 | 65 | 1008.8 |
| 20260905211905 | 67 | 123 | 0.0 | 1.0 | 0.00 | 0.00 | 0.00 | 64 | 1008.7 |
| 20260905211550 | 66 | 123 | 0.0 | 1.0 | 0.00 | 0.00 | 0.00 | 64 | 1008.3 |
| 20260905211348 | 67 | 124 | 0.0 | 1.0 | 0.00 | 0.00 | 0.00 | 64 | 1008.7 |
| 20260905210844 | 67 | 123 | 0.0 | 1.0 | 0.00 | 0.00 | 0.00 | 64 | 1008.7 |
| 20260905210405 | 67 | 96 | 0.0 | 2.0 | 0.00 | 0.00 | 0.00 | 64 | 1008.7 |
| 20260905210050 | 67 | 107 | 0.0 | 2.0 | 0.00 | 0.00 | 0.00 | 63 | 1008.2 |
| 20260905205841 | 67 | 105 | 1.0 | 2.0 | 0.00 | 0.00 | 0.00 | 63 | 1008.6 |
| 20260905205336 | 68 | 98 | 1.0 | 3.0 | 0.00 | 0.00 | 0.00 | 63 | 1008.6 |
| 20260905204851 | 69 | 131 | 1.0 | 3.0 | 0.00 | 0.00 | 0.00 | 63 | 1008.5 |
| 20260905204550 | 68 | 141 | 1.0 | 3.0 | 0.00 | 0.00 | 0.00 | 63 | 1008.0 |
| 20260905204349 | 69 | 115 | 1.0 | 2.0 | 0.00 | 0.00 | 0.00 | 64 | 1008.5 |
| 20260905203845 | 69 | 124 | 0.0 | 1.0 | 0.00 | 0.00 | 0.00 | 63 | 1008.3 |
| 20260905203345 | 70 | 285 | 0.0 | 3.0 | 0.00 | 0.00 | 0.00 | 63 | 1008.0 |
| 20260905203004 | 70 | 284 | 0.0 | 3.0 | 0.00 | 0.00 | 0.00 | 62 | 1007.5 |
| 20260905202904 | 70 | 295 | 0.0 | 3.0 | 0.00 | 0.00 | 0.00 | 62 | 1008.0 |
| 20260905202343 | 70 | 217 | 1.0 | 3.0 | 0.00 | 0.00 | 0.00 | 61 | 1008.0 |
| 20260905201859 | 70 | 163 | 1.0 | 2.0 | 0.00 | 0.00 | 0.00 | 61 | 1007.9 |
| 20260905201553 | 70 | 190 | 0.0 | 2.0 | 0.00 | 0.00 | 0.00 | 61 | 1007.4 |
| 20260905201340 | 70 | 212 | 0.0 | 2.0 | 0.00 | 0.00 | 0.00 | 61 | 1007.9 |
| 20260905200848 | 71 | 252 | 1.0 | 2.0 | 0.00 | 0.00 | 0.00 | 61 | 1007.9 |
| 20260905200345 | 71 | 120 | 0.0 | 0.0 | 0.00 | 0.00 | 0.00 | 60 | 1007.8 |
| 20260905200047 | 71 | 120 | 0.0 | 0.0 | 0.00 | 0.00 | 0.00 | 60 | 1007.3 |
| 20260905195843 | 71 | 120 | 0.0 | 0.0 | 0.00 | 0.00 | 0.00 | 60 | 1007.7 |
| 20260905195343 | 72 | 120 | 0.0 | 0.0 | 0.00 | 0.00 | 0.00 | 60 | 1007.7 |
| 20260905194841 | 72 | 120 | 0.0 | 0.0 | 0.00 | 0.00 | 0.00 | 59 | 1007.7 |
| 20260905194502 | 72 | 120 | 0.0 | 1.0 | 0.00 | 0.00 | 0.00 | 58 | 1007.2 |
| 20260905194346 | 72 | 120 | 0.0 | 1.0 | 0.00 | 0.00 | 0.00 | 58 | 1007.7 |
| 20260905193842 | 74 | 121 | 0.0 | 1.0 | 0.00 | 0.00 | 0.00 | 56 | 1007.7 |
| 20260905193340 | 74 | 119 | 0.0 | 1.0 | 0.00 | 0.00 | 0.00 | 54 | 1007.6 |
| 20260905193040 | 74 | 119 | 0.0 | 1.0 | 0.00 | 0.00 | 0.00 | 54 | 1007.0 |
| 20260905192836 | 75 | 119 | 0.0 | 1.0 | 0.00 | 0.00 | 0.00 | 54 | 1007.6 |
| 20260905192355 | 74 | 117 | 0.0 | 1.0 | 0.00 | 0.00 | 0.00 | 55 | 1007.6 |
| 20260905191848 | 73 | 117 | 0.0 | 1.0 | 0.00 | 0.00 | 0.00 | 56 | 1007.7 |
| 20260905191549 | 72 | 117 | 0.0 | 1.0 | 0.00 | 0.00 | 0.00 | 56 | 1007.0 |
| 20260905191348 | 73 | 117 | 0.0 | 1.0 | 0.00 | 0.00 | 0.00 | 56 | 1007.6 |
| 20260905190335 | 72 | 128 | 1.0 | 2.0 | 0.00 | 0.00 | 0.00 | 55 | 1007.7 |
| 20260905190058 | 72 | 122 | 0.0 | 2.0 | 0.00 | 0.00 | 0.00 | 55 | 1007.2 |
| 20260905185855 | 73 | 130 | 1.0 | 2.0 | 0.00 | 0.00 | 0.00 | 54 | 1007.8 |
| 20260905185354 | 74 | 104 | 0.0 | 2.0 | 0.00 | 0.00 | 0.00 | 52 | 1007.6 |
| 20260905184850 | 74 | 109 | 0.0 | 2.0 | 0.00 | 0.00 | 0.00 | 53 | 1007.6 |
| 20260905184512 | 73 | 106 | 0.0 | 2.0 | 0.00 | 0.00 | 0.00 | 54 | 1007.0 |
| 20260905184410 | 73 | 100 | 1.0 | 3.0 | 0.00 | 0.00 | 0.00 | 52 | 1007.6 |
| 20260905183846 | 73 | 126 | 0.0 | 3.0 | 0.00 | 0.00 | 0.00 | 55 | 1007.5 |
| 20260905183347 | 73 | 116 | 0.0 | 1.0 | 0.00 | 0.00 | 0.00 | 53 | 1007.5 |
| 20260905183045 | 71 | 100 | 0.0 | 1.0 | 0.00 | 0.00 | 0.00 | 57 | 1007.0 |
| 20260905182845 | 72 | 98 | 0.0 | 1.0 | 0.00 | 0.00 | 0.00 | 58 | 1007.6 |
| 20260905182402 | 71 | 98 | 0.0 | 1.0 | 0.00 | 0.00 | 0.00 | 57 | 1007.5 |
| 20260905181838 | 71 | 98 | 0.0 | 2.0 | 0.00 | 0.00 | 0.00 | 56 | 1007.5 |
| 20260905181546 | 71 | 98 | 0.0 | 2.0 | 0.00 | 0.00 | 0.00 | 56 | 1006.9 |
| 20260905181337 | 72 | 98 | 1.0 | 2.0 | 0.00 | 0.00 | 0.00 | 55 | 1007.6 |
| 20260905180852 | 72 | 98 | 0.0 | 2.0 | 0.00 | 0.00 | 0.00 | 55 | 1007.4 |
| 20260905180352 | 73 | 96 | 1.0 | 1.0 | 0.00 | 0.00 | 0.00 | 53 | 1007.4 |
| 20260905180051 | 73 | 98 | 0.0 | 0.0 | 0.00 | 0.00 | 0.00 | 50 | 1006.9 |
| 20260905175850 | 74 | 98 | 0.0 | 0.0 | 0.00 | 0.00 | 0.00 | 50 | 1007.4 |
| 20260905175348 | 73 | 223 | 0.0 | 2.0 | 0.00 | 0.00 | 0.00 | 53 | 1007.3 |
| 20260905174838 | 73 | 226 | 0.0 | 2.0 | 0.00 | 0.00 | 0.00 | 52 | 1007.4 |
| 20260905174539 | 72 | 259 | 0.0 | 2.0 | 0.00 | 0.00 | 0.00 | 53 | 1006.9 |
| 20260905174338 | 73 | 174 | 0.0 | 1.0 | 0.00 | 0.00 | 0.00 | 53 | 1007.3 |
| 20260905173852 | 73 | 259 | 1.0 | 2.0 | 0.00 | 0.00 | 0.00 | 52 | 1007.3 |
| 20260905173351 | 73 | 271 | 0.0 | 3.0 | 0.00 | 0.00 | 0.00 | 55 | 1007.3 |
| 20260905173050 | 72 | 293 | 0.0 | 3.0 | 0.00 | 0.00 | 0.00 | 54 | 1006.9 |
| 20260905172845 | 72 | 78 | 1.0 | 3.0 | 0.00 | 0.00 | 0.00 | 57 | 1007.4 |
| 20260905172344 | 72 | 229 | 0.0 | 3.0 | 0.00 | 0.00 | 0.00 | 57 | 1007.3 |
| 20260905171859 | 71 | 243 | 0.0 | 0.0 | 0.00 | 0.00 | 0.00 | 57 | 1007.3 |
| 20260905171538 | 71 | 165 | 0.0 | 0.0 | 0.00 | 0.00 | 0.00 | 57 | 1006.8 |
| 20260905171337 | 71 | 251 | 0.0 | 0.0 | 0.00 | 0.00 | 0.00 | 59 | 1007.3 |
| 20260905170853 | 70 | 258 | 0.0 | 1.0 | 0.00 | 0.00 | 0.00 | 61 | 1007.3 |
| 20260905170411 | 70 | 136 | 0.0 | 1.0 | 0.00 | 0.00 | 0.00 | 61 | 1007.4 |
| 20260905170010 | 69 | 136 | 0.0 | 1.0 | 0.00 | 0.00 | 0.00 | 62 | 1006.8 |
| 20260905165909 | 69 | 256 | 0.0 | 1.0 | 0.00 | 0.00 | 0.00 | 60 | 1007.5 |
| 20260905165348 | 69 | 212 | 0.0 | 1.0 | 0.00 | 0.00 | 0.00 | 65 | 1007.6 |
| 20260905164837 | 68 | 268 | 0.0 | 1.0 | 0.00 | 0.00 | 0.00 | 64 | 1007.6 |
| 20260905164538 | 67 | 290 | 0.0 | 1.0 | 0.00 | 0.00 | 0.00 | 64 | 1007.0 |
| 20260905164337 | 68 | 293 | 0.0 | 1.0 | 0.00 | 0.00 | 0.00 | 65 | 1007.5 |
| 20260905163848 | 68 | 265 | 0.0 | 1.0 | 0.00 | 0.00 | 0.00 | 64 | 1007.4 |
| 20260905163347 | 68 | 352 | 0.0 | 3.0 | 0.00 | 0.00 | 0.00 | 63 | 1007.5 |
| 20260905163045 | 68 | 352 | 0.0 | 3.0 | 0.00 | 0.00 | 0.00 | 62 | 1007.0 |
| 20260905162844 | 69 | 252 | 0.0 | 3.0 | 0.00 | 0.00 | 0.00 | 62 | 1007.6 |
| 20260905162346 | 69 | 33 | 1.0 | 3.0 | 0.00 | 0.00 | 0.00 | 60 | 1007.6 |
| 20260905161840 | 71 | 279 | 1.0 | 3.0 | 0.00 | 0.00 | 0.00 | 61 | 1007.6 |
| 20260905161556 | 71 | 285 | 0.0 | 2.0 | 0.00 | 0.00 | 0.00 | 60 | 1006.9 |
| 20260905161340 | 71 | 76 | 0.0 | 2.0 | 0.00 | 0.00 | 0.00 | 59 | 1007.5 |
| 20260905160833 | 73 | 270 | 1.0 | 2.0 | 0.00 | 0.00 | 0.00 | 56 | 1007.4 |
| 20260905160355 | 73 | 120 | 0.0 | 3.0 | 0.00 | 0.00 | 0.00 | 55 | 1007.4 |
| 20260905160051 | 73 | 250 | 0.0 | 3.0 | 0.00 | 0.00 | 0.00 | 54 | 1006.9 |
| 20260905155850 | 73 | 224 | 1.0 | 3.0 | 0.00 | 0.00 | 0.00 | 54 | 1007.4 |
| 20260905155345 | 73 | 110 | 0.0 | 3.0 | 0.00 | 0.00 | 0.00 | 54 | 1007.5 |
| 20260905154841 | 73 | 168 | 1.0 | 3.0 | 0.00 | 0.00 | 0.00 | 54 | 1007.6 |
| 20260905154543 | 72 | 146 | 0.0 | 3.0 | 0.00 | 0.00 | 0.00 | 54 | 1006.9 |
| 20260905154341 | 73 | 276 | 1.0 | 3.0 | 0.00 | 0.00 | 0.00 | 56 | 1007.4 |
| 20260905153859 | 72 | 288 | 0.0 | 2.0 | 0.00 | 0.00 | 0.00 | 57 | 1007.4 |
| 20260905153355 | 72 | 118 | 0.0 | 2.0 | 0.00 | 0.00 | 0.00 | 56 | 1007.6 |
| 20260905153053 | 71 | 283 | 0.0 | 2.0 | 0.00 | 0.00 | 0.00 | 57 | 1007.0 |
| 20260905152851 | 71 | 69 | 1.0 | 2.0 | 0.00 | 0.00 | 0.00 | 59 | 1007.5 |
| 20260905152352 | 71 | 108 | 0.0 | 3.0 | 0.00 | 0.00 | 0.00 | 58 | 1007.5 |
| 20260905151844 | 71 | 75 | 1.0 | 3.0 | 0.00 | 0.00 | 0.00 | 58 | 1007.6 |
| 20260905151505 | 71 | 285 | 0.0 | 3.0 | 0.00 | 0.00 | 0.00 | 57 | 1007.0 |
| 20260905151346 | 71 | 120 | 1.0 | 2.0 | 0.00 | 0.00 | 0.00 | 57 | 1007.5 |
| 20260905150854 | 71 | 150 | 0.0 | 2.0 | 0.00 | 0.00 | 0.00 | 57 | 1007.6 |
| 20260905150336 | 70 | 230 | 0.0 | 3.0 | 0.00 | 0.00 | 0.00 | 58 | 1007.5 |
| 20260905150034 | 70 | 264 | 0.0 | 3.0 | 0.00 | 0.00 | 0.00 | 58 | 1006.9 |
| 20260905145933 | 70 | 40 | 0.0 | 3.0 | 0.00 | 0.00 | 0.00 | 58 | 1007.4 |
| 20260905145347 | 70 | 122 | 0.0 | 3.0 | 0.00 | 0.00 | 0.00 | 59 | 1007.6 |
| 20260905144840 | 70 | 285 | 0.0 | 2.0 | 0.00 | 0.00 | 0.00 | 58 | 1007.7 |
| 20260905144502 | 69 | 183 | 0.0 | 5.0 | 0.00 | 0.00 | 0.00 | 58 | 1007.0 |
| 20260905144401 | 69 | 257 | 1.0 | 5.0 | 0.00 | 0.00 | 0.00 | 58 | 1007.7 |
| 20260905143834 | 69 | 255 | 1.0 | 5.0 | 0.00 | 0.00 | 0.00 | 59 | 1007.7 |
| 20260905143355 | 69 | 249 | 1.0 | 3.0 | 0.00 | 0.00 | 0.00 | 59 | 1007.6 |
| 20260905143046 | 69 | 271 | 0.0 | 7.0 | 0.00 | 0.00 | 0.00 | 59 | 1007.1 |
| 20260905142839 | 69 | 290 | 1.0 | 7.0 | 0.00 | 0.00 | 0.00 | 57 | 1007.7 |
| 20260905142339 | 69 | 224 | 2.0 | 7.0 | 0.00 | 0.00 | 0.00 | 58 | 1007.7 |
| 20260905141837 | 68 | 98 | 0.0 | 4.0 | 0.00 | 0.00 | 0.00 | 60 | 1007.7 |
| 20260905141539 | 68 | 87 | 0.0 | 5.0 | 0.00 | 0.00 | 0.00 | 60 | 1007.2 |
| 20260905141337 | 68 | 87 | 0.0 | 5.0 | 0.00 | 0.00 | 0.00 | 60 | 1007.7 |
| 20260905140854 | 68 | 281 | 1.0 | 5.0 | 0.00 | 0.00 | 0.00 | 60 | 1007.9 |
| 20260905140352 | 68 | 243 | 0.0 | 6.0 | 0.00 | 0.00 | 0.00 | 60 | 1007.8 |
| 20260905140050 | 67 | 68 | 0.0 | 6.0 | 0.00 | 0.00 | 0.00 | 60 | 1007.2 |
| 20260905135846 | 68 | 340 | 2.0 | 6.0 | 0.00 | 0.00 | 0.00 | 58 | 1007.8 |
| 20260905135345 | 68 | 129 | 1.0 | 3.0 | 0.00 | 0.00 | 0.00 | 59 | 1007.6 |
| 20260905134852 | 67 | 207 | 0.0 | 2.0 | 0.00 | 0.00 | 0.00 | 60 | 1007.6 |
| 20260905134555 | 67 | 220 | 0.0 | 2.0 | 0.00 | 0.00 | 0.00 | 59 | 1007.0 |
| 20260905134353 | 67 | 245 | 0.0 | 3.0 | 0.00 | 0.00 | 0.00 | 60 | 1007.5 |
| 20260905133847 | 67 | 74 | 0.0 | 3.0 | 0.00 | 0.00 | 0.00 | 59 | 1007.5 |
| 20260905133346 | 66 | 245 | 0.0 | 2.0 | 0.00 | 0.00 | 0.00 | 60 | 1007.4 |
| 20260905133004 | 66 | 281 | 0.0 | 2.0 | 0.00 | 0.00 | 0.00 | 60 | 1006.8 |
| 20260905132903 | 66 | 264 | 1.0 | 2.0 | 0.00 | 0.00 | 0.00 | 61 | 1007.3 |
| 20260905132345 | 66 | 274 | 1.0 | 2.0 | 0.00 | 0.00 | 0.00 | 60 | 1007.4 |
| 20260905131841 | 66 | 242 | 0.0 | 3.0 | 0.00 | 0.00 | 0.00 | 59 | 1007.3 |
| 20260905131543 | 65 | 241 | 0.0 | 3.0 | 0.00 | 0.00 | 0.00 | 59 | 1006.7 |
| 20260905131342 | 65 | 34 | 1.0 | 3.0 | 0.00 | 0.00 | 0.00 | 60 | 1007.2 |
| 20260905130900 | 65 | 260 | 0.0 | 3.0 | 0.00 | 0.00 | 0.00 | 60 | 1007.1 |
| 20260905130340 | 65 | 104 | 0.0 | 3.0 | 0.00 | 0.00 | 0.00 | 59 | 1007.0 |
| 20260905130018 | 64 | 301 | 0.0 | 3.0 | 0.00 | 0.00 | 0.00 | 59 | 1006.5 |
| 20260905125915 | 65 | 283 | 0.0 | 5.0 | 0.00 | 0.00 | 0.00 | 59 | 1007.0 |
| 20260905125349 | 65 | 197 | 0.0 | 5.0 | 0.00 | 0.00 | 0.00 | 60 | 1007.1 |
| 20260905124837 | 64 | 242 | 1.0 | 2.0 | 0.00 | 0.00 | 0.00 | 60 | 1007.1 |
| 20260905124514 | 64 | 34 | 0.0 | 2.0 | 0.00 | 0.00 | 0.00 | 60 | 1006.5 |
| 20260905124352 | 64 | 30 | 0.0 | 2.0 | 0.00 | 0.00 | 0.00 | 60 | 1007.0 |
| 20260905123846 | 64 | 79 | 0.0 | 3.0 | 0.00 | 0.00 | 0.00 | 60 | 1007.1 |
| 20260905123347 | 64 | 87 | 1.0 | 3.0 | 0.00 | 0.00 | 0.00 | 60 | 1006.8 |
| 20260905123047 | 64 | 232 | 0.0 | 3.0 | 0.00 | 0.00 | 0.00 | 60 | 1006.3 |
| 20260905122846 | 64 | 280 | 1.0 | 3.0 | 0.00 | 0.00 | 0.00 | 60 | 1006.7 |
| 20260905122347 | 64 | 258 | 1.0 | 3.0 | 0.00 | 0.00 | 0.00 | 59 | 1006.7 |
| 20260905121842 | 64 | 121 | 0.0 | 4.0 | 0.00 | 0.00 | 0.00 | 59 | 1006.7 |
| 20260905121542 | 63 | 201 | 0.0 | 4.0 | 0.00 | 0.00 | 0.00 | 59 | 1006.1 |
| 20260905121341 | 64 | 328 | 1.0 | 4.0 | 0.00 | 0.00 | 0.00 | 60 | 1006.7 |
| 20260905120838 | 64 | 333 | 1.0 | 4.0 | 0.00 | 0.00 | 0.00 | 59 | 1006.6 |
| 20260905120337 | 64 | 228 | 0.0 | 3.0 | 0.00 | 0.00 | 0.00 | 59 | 1006.7 |
| 20260905120052 | 63 | 162 | 0.0 | 3.0 | 0.00 | 0.00 | 0.00 | 59 | 1006.1 |
| 20260905115850 | 64 | 255 | 0.0 | 3.0 | 0.00 | 0.00 | 0.00 | 59 | 1006.5 |
| 20260905115409 | 63 | 272 | 1.0 | 5.0 | 0.00 | 0.00 | 0.00 | 60 | 1006.5 |
| 20260905114843 | 63 | 229 | 0.0 | 5.0 | 0.00 | 0.00 | 0.00 | 60 | 1006.6 |
| 20260905114545 | 62 | 262 | 1.0 | 5.0 | 0.00 | 0.00 | 0.00 | 60 | 1005.9 |
| 20260905114343 | 63 | 323 | 1.0 | 5.0 | 0.00 | 0.00 | 0.00 | 60 | 1006.5 |
| 20260905113839 | 63 | 290 | 0.0 | 5.0 | 0.00 | 0.00 | 0.00 | 60 | 1006.4 |
| 20260905113339 | 63 | 115 | 1.0 | 5.0 | 0.00 | 0.00 | 0.00 | 60 | 1006.4 |
| 20260905113055 | 62 | 98 | 0.0 | 5.0 | 0.00 | 0.00 | 0.00 | 60 | 1005.9 |
| 20260905112854 | 63 | 133 | 1.0 | 5.0 | 0.00 | 0.00 | 0.00 | 60 | 1006.3 |
| 20260905112353 | 62 | 241 | 1.0 | 4.0 | 0.00 | 0.00 | 0.00 | 60 | 1006.4 |
| 20260905111843 | 62 | 297 | 2.0 | 4.0 | 0.00 | 0.00 | 0.00 | 61 | 1006.4 |
| 20260905111608 | 62 | 85 | 0.0 | 4.0 | 0.00 | 0.00 | 0.00 | 61 | 1005.8 |
| 20260905111358 | 62 | 229 | 1.0 | 4.0 | 0.00 | 0.00 | 0.00 | 61 | 1006.3 |
| 20260905110849 | 62 | 263 | 1.0 | 3.0 | 0.00 | 0.00 | 0.00 | 61 | 1006.3 |
| 20260905110348 | 61 | 278 | 0.0 | 3.0 | 0.00 | 0.00 | 0.00 | 61 | 1006.4 |
| 20260905110051 | 61 | 203 | 0.0 | 3.0 | 0.00 | 0.00 | 0.00 | 61 | 1005.8 |
| 20260905105845 | 61 | 274 | 0.0 | 3.0 | 0.00 | 0.00 | 0.00 | 61 | 1006.3 |
| 20260905105344 | 61 | 104 | 0.0 | 3.0 | 0.00 | 0.00 | 0.00 | 61 | 1006.2 |
| 20260905104843 | 61 | 314 | 0.0 | 3.0 | 0.00 | 0.00 | 0.00 | 61 | 1006.3 |
| 20260905104555 | 61 | 109 | 0.0 | 4.0 | 0.00 | 0.00 | 0.00 | 61 | 1005.9 |
| 20260905104343 | 61 | 248 | 0.0 | 4.0 | 0.00 | 0.00 | 0.00 | 61 | 1006.2 |
| 20260905103840 | 61 | 346 | 0.0 | 3.0 | 0.00 | 0.00 | 0.00 | 61 | 1006.2 |
| 20260905103338 | 61 | 347 | 0.0 | 2.0 | 0.00 | 0.00 | 0.00 | 61 | 1006.3 |
| 20260905103010 | 61 | 153 | 0.0 | 2.0 | 0.00 | 0.00 | 0.00 | 61 | 1005.8 |
| 20260905102909 | 61 | 269 | 0.0 | 2.0 | 0.00 | 0.00 | 0.00 | 61 | 1006.3 |
| 20260905102345 | 61 | 262 | 0.0 | 2.0 | 0.00 | 0.00 | 0.00 | 61 | 1006.3 |
| 20260905101837 | 62 | 136 | 0.0 | 2.0 | 0.00 | 0.00 | 0.00 | 61 | 1006.2 |
| 20260905101538 | 61 | 128 | 0.0 | 2.0 | 0.00 | 0.00 | 0.00 | 61 | 1005.7 |
| 20260905101337 | 62 | 118 | 0.0 | 2.0 | 0.00 | 0.00 | 0.00 | 61 | 1006.3 |
| 20260905100851 | 62 | 343 | 0.0 | 2.0 | 0.00 | 0.00 | 0.00 | 61 | 1006.2 |
| 20260905100410 | 62 | 134 | 1.0 | 3.0 | 0.00 | 0.00 | 0.00 | 61 | 1006.2 |
| 20260905100044 | 61 | 295 | 0.0 | 3.0 | 0.00 | 0.00 | 0.00 | 61 | 1005.6 |
| 20260905095843 | 62 | 260 | 1.0 | 3.0 | 0.00 | 0.00 | 0.00 | 61 | 1006.1 |
| 20260905095343 | 62 | 254 | 0.0 | 3.0 | 0.00 | 0.00 | 0.00 | 61 | 1006.1 |
| 20260905094838 | 62 | 254 | 1.0 | 3.0 | 0.00 | 0.00 | 0.00 | 61 | 1006.0 |
| 20260905094539 | 62 | 216 | 0.0 | 4.0 | 0.00 | 0.00 | 0.00 | 60 | 1005.6 |
| 20260905094337 | 62 | 252 | 0.0 | 4.0 | 0.00 | 0.00 | 0.00 | 60 | 1006.0 |
| 20260905093855 | 63 | 200 | 0.0 | 4.0 | 0.00 | 0.00 | 0.00 | 60 | 1006.0 |
| 20260905093415 | 63 | 147 | 0.0 | 2.0 | 0.00 | 0.00 | 0.00 | 60 | 1005.8 |